createdAt,value
2019-01-26T00:02:09.585Z,100358.87
2019-01-26T00:04:37.046Z,100361.38
2019-01-26T00:07:04.105Z,100360.23
2019-01-26T00:09:32.302Z,100350.44
2019-01-26T00:12:00.363Z,100343.73
2019-01-26T00:14:28.818Z,100341.28
2019-01-26T00:16:56.181Z,100328.24
2019-01-26T00:19:23.629Z,100321.13
2019-01-26T00:21:51.290Z,100319.13
2019-01-26T00:24:19.053Z,100310.61
2019-01-26T00:26:46.411Z,100307.85
2019-01-26T00:29:13.761Z,100304.18
2019-01-26T00:31:42.670Z,100300.97
2019-01-26T00:34:09.755Z,100290.94
2019-01-26T00:36:37.931Z,100300.01
2019-01-26T00:39:07.882Z,100290.03
2019-01-26T00:41:35.416Z,100288.66
2019-01-26T00:44:02.483Z,100285.72
2019-01-26T00:46:29.594Z,100283.66
2019-01-26T00:48:56.646Z,100274.92
2019-01-26T00:51:24.047Z,100261.95
2019-01-26T00:53:51.125Z,100263.83
2019-01-26T00:56:18.183Z,100247.80
2019-01-26T00:58:45.250Z,100245.91
2019-01-26T01:01:12.851Z,100244.50
2019-01-26T01:03:40.025Z,100242.08
2019-01-26T01:06:07.175Z,100244.50
2019-01-26T01:08:34.711Z,100238.99
2019-01-26T01:11:02.064Z,100240.17
2019-01-26T01:13:29.418Z,100240.14
2019-01-26T01:15:56.788Z,100237.45
2019-01-26T01:18:24.438Z,100235.80
2019-01-26T01:20:52.101Z,100231.50
2019-01-26T01:23:19.473Z,100231.65
2019-01-26T01:25:46.806Z,100239.85
2019-01-26T01:28:15.285Z,100247.04
2019-01-26T01:30:42.637Z,100239.05
2019-01-26T01:33:11.429Z,100239.78
2019-01-26T01:35:38.501Z,100237.25
2019-01-26T01:38:06.139Z,100235.65
2019-01-26T01:40:33.485Z,100242.82
2019-01-26T01:43:00.857Z,100231.58
2019-01-26T01:45:28.310Z,100228.52
2019-01-26T01:47:55.658Z,100225.61
2019-01-26T01:50:23.014Z,100222.56
2019-01-26T01:52:50.489Z,100224.24
2019-01-26T01:55:19.670Z,100225.94
2019-01-26T01:57:47.032Z,100218.64
2019-01-26T02:00:19.755Z,100215.02
2019-01-26T02:02:47.156Z,100204.02
2019-01-26T02:05:14.594Z,100200.75
2019-01-26T02:07:41.965Z,100211.98
2019-01-26T02:10:11.048Z,100202.42
2019-01-26T02:12:39.183Z,100216.66
2019-01-26T02:15:07.403Z,100213.48
2019-01-26T02:17:34.575Z,100214.94
2019-01-26T02:20:03.768Z,100217.76
2019-01-26T02:22:31.522Z,100201.19
2019-01-26T02:24:59.082Z,100214.11
2019-01-26T02:27:27.865Z,100202.97
2019-01-26T02:29:55.971Z,100198.95
2019-01-26T02:32:23.046Z,100190.23
2019-01-26T02:34:50.750Z,100196.92
2019-01-26T02:37:20.260Z,100197.22
2019-01-26T02:39:47.925Z,100198.41
2019-01-26T02:42:15.374Z,100201.84
2019-01-26T02:44:42.725Z,100202.87
2019-01-26T02:47:10.088Z,100201.46
2019-01-26T02:49:39.585Z,100200.34
2019-01-26T02:52:06.944Z,100195.30
2019-01-26T02:54:36.144Z,100203.07
2019-01-26T02:57:03.704Z,100196.36
2019-01-26T02:59:31.893Z,100200.45
2019-01-26T03:01:59.273Z,100191.86
2019-01-26T03:04:26.687Z,100182.98
2019-01-26T03:06:54.039Z,100181.22
2019-01-26T03:09:21.498Z,100188.94
2019-01-26T03:11:48.953Z,100183.56
2019-01-26T03:14:16.306Z,100188.45
2019-01-26T03:16:45.609Z,100182.00
2019-01-26T03:19:12.687Z,100187.20
2019-01-26T03:21:42.161Z,100188.77
2019-01-26T03:24:12.484Z,100188.95
2019-01-26T03:26:41.273Z,100183.65
2019-01-26T03:29:10.155Z,100178.77
2019-01-26T03:31:39.672Z,100179.05
2019-01-26T03:34:07.031Z,100178.40
2019-01-26T03:36:35.217Z,100178.40
2019-01-26T03:39:02.325Z,100170.59
2019-01-26T03:41:31.291Z,100175.91
2019-01-26T03:43:59.000Z,100172.19
2019-01-26T03:46:26.366Z,100167.78
2019-01-26T03:48:53.830Z,100150.52
2019-01-26T03:51:23.261Z,100167.21
2019-01-26T03:53:50.348Z,100160.38
2019-01-26T03:56:17.432Z,100141.63
2019-01-26T03:58:45.595Z,100148.15
2019-01-26T04:01:12.656Z,100139.63
2019-01-26T04:03:39.737Z,100130.25
2019-01-26T04:06:06.781Z,100136.72
2019-01-26T04:08:34.352Z,100136.67
2019-01-26T04:11:02.498Z,100140.99
2019-01-26T04:13:30.227Z,100143.07
2019-01-26T04:15:58.706Z,100141.53
2019-01-26T04:18:26.022Z,100138.39
2019-01-26T04:20:53.729Z,100133.31
2019-01-26T04:23:21.162Z,100130.27
2019-01-26T04:25:50.033Z,100131.27
2019-01-26T04:28:17.526Z,100119.94
2019-01-26T04:30:45.393Z,100123.81
2019-01-26T04:33:13.053Z,100122.31
2019-01-26T04:35:40.421Z,100122.41
2019-01-26T04:38:07.965Z,100122.14
2019-01-26T04:40:35.729Z,100114.20
2019-01-26T04:43:03.192Z,100120.67
2019-01-26T04:45:30.581Z,100117.06
2019-01-26T04:47:57.897Z,100110.59
2019-01-26T04:50:25.486Z,100108.84
2019-01-26T04:52:53.230Z,100109.18
2019-01-26T04:55:20.781Z,100105.64
2019-01-26T04:57:48.134Z,100100.34
2019-01-26T05:00:18.609Z,100111.31
2019-01-26T05:02:46.029Z,100108.03
2019-01-26T05:05:13.368Z,100104.02
2019-01-26T05:07:42.255Z,100103.05
2019-01-26T05:10:10.518Z,100102.20
2019-01-26T05:12:37.892Z,100097.06
2019-01-26T05:15:06.422Z,100090.91
2019-01-26T05:17:39.190Z,100084.30
2019-01-26T05:20:04.652Z,100088.16
2019-01-26T05:22:31.746Z,100079.09
2019-01-26T05:24:59.156Z,100076.62
2019-01-26T05:27:26.229Z,100081.61
2019-01-26T05:29:53.312Z,100078.02
2019-01-26T05:32:20.378Z,100074.67
2019-01-26T05:34:47.447Z,100078.73
2019-01-26T05:37:15.329Z,100078.27
2019-01-26T05:39:42.785Z,100074.42
2019-01-26T05:42:10.547Z,100072.77
2019-01-26T05:44:38.106Z,100065.86
2019-01-26T05:47:05.769Z,100078.52
2019-01-26T05:49:32.838Z,100068.27
2019-01-26T05:52:00.084Z,100073.72
2019-01-26T05:54:27.530Z,100077.47
2019-01-26T05:56:55.711Z,100073.25
2019-01-26T05:59:22.850Z,100075.33
2019-01-26T06:01:50.252Z,100074.80
2019-01-26T06:04:17.661Z,100077.66
2019-01-26T06:06:45.440Z,100064.59
2019-01-26T06:09:12.491Z,100067.48
2019-01-26T06:11:40.254Z,100063.47
2019-01-26T06:14:07.591Z,100067.91
2019-01-26T06:16:34.787Z,100071.82
2019-01-26T06:19:02.398Z,100066.47
2019-01-26T06:21:30.267Z,100061.13
2019-01-26T06:23:57.322Z,100057.16
2019-01-26T06:26:24.669Z,100049.63
2019-01-26T06:28:51.752Z,100052.28
2019-01-26T06:31:18.821Z,100060.83
2019-01-26T06:33:46.250Z,100058.09
2019-01-26T06:36:14.850Z,100049.66
2019-01-26T06:38:42.157Z,100049.52
2019-01-26T06:41:10.025Z,100047.25
2019-01-26T06:43:37.451Z,100041.67
2019-01-26T06:46:04.833Z,100038.18
2019-01-26T06:48:31.974Z,100046.67
2019-01-26T06:50:59.339Z,100040.95
2019-01-26T06:53:27.207Z,100045.38
2019-01-26T06:55:54.268Z,100045.27
2019-01-26T06:58:22.013Z,100044.74
2019-01-26T07:00:49.370Z,100034.39
2019-01-26T07:03:17.046Z,100042.16
2019-01-26T07:05:55.655Z,100050.56
2019-01-26T07:08:23.718Z,100040.16
2019-01-26T07:10:51.075Z,100040.29
2019-01-26T07:13:18.430Z,100045.16
2019-01-26T07:15:45.630Z,100038.81
2019-01-26T07:18:13.447Z,100037.34
2019-01-26T07:20:40.803Z,100044.05
2019-01-26T07:23:08.288Z,100049.41
2019-01-26T07:25:35.877Z,100048.16
2019-01-26T07:28:03.245Z,100055.89
2019-01-26T07:30:30.541Z,100046.53
2019-01-26T07:32:57.608Z,100047.94
2019-01-26T07:35:24.929Z,100049.95
2019-01-26T07:37:51.985Z,100061.13
2019-01-26T07:40:19.402Z,100061.29
2019-01-26T07:42:46.457Z,100058.96
2019-01-26T07:45:13.745Z,100056.41
2019-01-26T07:47:41.077Z,100052.89
2019-01-26T07:50:10.816Z,100063.69
2019-01-26T07:52:38.554Z,100070.89
2019-01-26T07:55:06.889Z,100068.36
2019-01-26T07:57:34.390Z,100064.25
2019-01-26T08:00:01.851Z,100069.56
2019-01-26T08:02:29.417Z,100065.90
2019-01-26T08:04:57.374Z,100064.14
2019-01-26T08:07:24.534Z,100065.28
2019-01-26T08:09:51.614Z,100059.80
2019-01-26T08:12:19.162Z,100062.31
2019-01-26T08:14:47.530Z,100066.28
2019-01-26T08:17:14.894Z,100059.55
2019-01-26T08:19:42.730Z,100066.45
2019-01-26T08:22:10.499Z,100068.45
2019-01-26T08:24:38.258Z,100066.63
2019-01-26T08:27:05.718Z,100069.59
2019-01-26T08:29:33.583Z,100069.94
2019-01-26T08:32:00.939Z,100069.92
2019-01-26T08:34:29.319Z,100065.92
2019-01-26T08:36:56.669Z,100063.06
2019-01-26T08:39:24.026Z,100068.03
2019-01-26T08:41:51.089Z,100066.52
2019-01-26T08:44:19.070Z,100065.51
2019-01-26T08:46:46.130Z,100064.84
2019-01-26T08:49:13.582Z,100066.68
2019-01-26T08:51:40.651Z,100075.44
2019-01-26T08:54:07.733Z,100071.41
2019-01-26T08:56:34.797Z,100064.19
2019-01-26T08:59:01.878Z,100064.30
2019-01-26T09:01:29.030Z,100061.23
2019-01-26T09:04:04.085Z,100062.60
2019-01-26T09:06:38.316Z,100065.78
2019-01-26T09:09:10.761Z,100068.23
2019-01-26T09:11:38.268Z,100071.46
2019-01-26T09:14:05.555Z,100076.73
2019-01-26T09:16:32.679Z,100073.12
2019-01-26T09:19:00.106Z,100067.45
2019-01-26T09:21:27.792Z,100071.70
2019-01-26T09:23:55.863Z,100071.42
2019-01-26T09:26:22.973Z,100062.72
2019-01-26T09:28:50.673Z,100070.38
2019-01-26T09:31:17.755Z,100067.75
2019-01-26T09:33:45.279Z,100065.53
2019-01-26T09:36:13.360Z,100059.65
2019-01-26T09:38:41.010Z,100065.12
2019-01-26T09:41:08.674Z,100054.64
2019-01-26T09:43:35.756Z,100060.50
2019-01-26T09:46:03.586Z,100055.88
2019-01-26T09:48:30.710Z,100058.70
2019-01-26T09:50:58.721Z,100057.80
2019-01-26T09:53:26.058Z,100054.31
2019-01-26T09:55:53.824Z,100051.95
2019-01-26T09:58:21.192Z,100058.80
2019-01-26T10:00:48.299Z,100052.66
2019-01-26T10:03:15.382Z,100049.41
2019-01-26T10:05:42.570Z,100050.36
2019-01-26T10:08:10.294Z,100050.70
2019-01-26T10:10:37.736Z,100051.59
2019-01-26T10:13:04.920Z,100053.36
2019-01-26T10:15:33.828Z,100055.38
2019-01-26T10:18:01.347Z,100051.59
2019-01-26T10:20:30.747Z,100046.63
2019-01-26T10:22:58.202Z,100047.59
2019-01-26T10:25:27.472Z,100049.00
2019-01-26T10:27:55.266Z,100060.59
2019-01-26T10:30:30.818Z,100054.95
2019-01-26T10:32:57.878Z,100056.09
2019-01-26T10:35:31.502Z,100055.77
2019-01-26T10:37:59.944Z,100051.97
2019-01-26T10:40:45.117Z,100050.92
2019-01-26T10:43:14.415Z,100047.13
2019-01-26T10:45:41.598Z,100049.14
2019-01-26T10:48:09.327Z,100050.19
2019-01-26T10:50:36.785Z,100048.78
2019-01-26T10:53:04.239Z,100047.34
2019-01-26T10:55:31.420Z,100042.88
2019-01-26T10:57:58.846Z,100042.39
2019-01-26T11:00:26.406Z,100036.47
2019-01-26T11:02:53.470Z,100042.41
2019-01-26T11:05:20.968Z,100031.62
2019-01-26T11:07:48.369Z,100036.66
2019-01-26T11:10:15.562Z,100041.13
2019-01-26T11:12:42.766Z,100038.00
2019-01-26T11:15:10.435Z,100038.22
2019-01-26T11:17:37.628Z,100041.48
2019-01-26T11:20:06.366Z,100034.11
2019-01-26T11:22:33.722Z,100040.98
2019-01-26T11:25:01.188Z,100046.98
2019-01-26T11:27:28.258Z,100044.17
2019-01-26T11:29:55.683Z,100038.73
2019-01-26T11:32:23.546Z,100041.78
2019-01-26T11:34:50.721Z,100038.70
2019-01-26T11:37:18.167Z,100032.98
2019-01-26T11:39:50.252Z,100035.05
2019-01-26T11:42:17.346Z,100037.66
2019-01-26T11:45:05.829Z,100027.52
2019-01-26T11:47:33.010Z,100030.21
2019-01-26T11:50:03.290Z,100029.77
2019-01-26T11:52:31.060Z,100025.38
2019-01-26T11:55:07.422Z,100025.97
2019-01-26T11:57:37.314Z,100018.52
2019-01-26T12:00:26.849Z,100032.58
2019-01-26T12:03:00.477Z,100024.78
2019-01-26T12:05:38.473Z,100020.63
2019-01-26T12:08:06.622Z,100018.86
2019-01-26T12:10:34.782Z,100015.45
2019-01-26T12:13:01.877Z,100016.58
2019-01-26T12:15:28.940Z,100011.84
2019-01-26T12:17:56.373Z,100013.28
2019-01-26T12:20:23.873Z,100012.97
2019-01-26T12:22:52.281Z,100014.09
2019-01-26T12:25:19.438Z,100019.81
2019-01-26T12:27:46.525Z,100009.98
2019-01-26T12:30:13.712Z,100014.80
2019-01-26T12:32:40.781Z,100011.88
2019-01-26T12:35:10.110Z,100012.53
2019-01-26T12:37:37.662Z,100003.37
2019-01-26T12:40:05.263Z,99998.64
2019-01-26T12:42:32.479Z,99997.79
2019-01-26T12:45:01.643Z,99996.09
2019-01-26T12:47:29.118Z,99999.22
2019-01-26T12:49:56.579Z,99994.41
2019-01-26T12:52:24.707Z,99991.53
2019-01-26T12:54:51.826Z,99989.63
2019-01-26T12:57:19.257Z,99985.16
2019-01-26T12:59:46.751Z,99988.36
2019-01-26T13:02:13.837Z,99978.83
2019-01-26T13:04:41.736Z,99992.02
2019-01-26T13:07:08.832Z,99981.70
2019-01-26T13:09:37.040Z,99976.84
2019-01-26T13:12:04.234Z,99977.09
2019-01-26T13:14:32.325Z,99968.94
2019-01-26T13:16:59.678Z,99972.15
2019-01-26T13:19:27.276Z,99969.16
2019-01-26T13:21:55.617Z,99968.81
2019-01-26T13:24:22.714Z,99967.34
2019-01-26T13:26:50.887Z,99962.22
2019-01-26T13:29:18.073Z,99959.14
2019-01-26T13:31:46.600Z,99956.02
2019-01-26T13:34:14.785Z,99956.92
2019-01-26T13:36:42.198Z,99960.19
2019-01-26T13:39:09.675Z,99955.11
2019-01-26T13:41:37.371Z,99952.89
2019-01-26T13:44:04.459Z,99952.89
2019-01-26T13:46:32.336Z,99953.74
2019-01-26T13:48:59.434Z,99947.34
2019-01-26T13:51:26.540Z,99948.03
2019-01-26T13:53:53.986Z,99949.78
2019-01-26T13:56:21.546Z,99943.78
2019-01-26T13:58:50.162Z,99944.03
2019-01-26T14:01:17.483Z,99938.36
2019-01-26T14:03:44.949Z,99933.64
2019-01-26T14:06:12.806Z,99931.95
2019-01-26T14:08:40.262Z,99929.86
2019-01-26T14:11:07.341Z,99932.95
2019-01-26T14:13:34.879Z,99935.19
2019-01-26T14:16:02.286Z,99932.43
2019-01-26T14:18:29.687Z,99929.41
2019-01-26T14:20:56.886Z,99927.28
2019-01-26T14:23:24.327Z,99924.15
2019-01-26T14:25:51.422Z,99919.70
2019-01-26T14:28:20.026Z,99919.34
2019-01-26T14:30:55.401Z,99921.12
2019-01-26T14:33:22.804Z,99920.42
2019-01-26T14:35:50.312Z,99915.80
2019-01-26T14:38:17.505Z,99916.28
2019-01-26T14:40:45.297Z,99912.97
2019-01-26T14:43:12.652Z,99912.02
2019-01-26T14:45:40.722Z,99912.03
2019-01-26T14:48:08.754Z,99913.82
2019-01-26T14:50:39.321Z,99910.27
2019-01-26T14:53:06.667Z,99909.87
2019-01-26T14:55:35.573Z,99912.45
2019-01-26T14:58:03.053Z,99910.95
2019-01-26T15:00:31.629Z,99906.19
2019-01-26T15:02:58.970Z,99899.88
2019-01-26T15:05:26.949Z,99901.77
2019-01-26T15:07:54.692Z,99903.38
2019-01-26T15:10:22.149Z,99902.87
2019-01-26T15:12:49.364Z,99904.67
2019-01-26T15:15:17.564Z,99902.37
2019-01-26T15:17:44.974Z,99900.65
2019-01-26T15:20:17.811Z,99904.64
2019-01-26T15:22:45.680Z,99901.09
2019-01-26T15:25:13.545Z,99902.89
2019-01-26T15:27:40.965Z,99902.20
2019-01-26T15:30:15.058Z,99893.11
2019-01-26T15:32:42.152Z,99890.53
2019-01-26T15:35:09.663Z,99894.72
2019-01-26T15:37:37.858Z,99897.22
2019-01-26T15:40:05.686Z,99898.87
2019-01-26T15:42:32.970Z,99893.22
2019-01-26T15:45:00.311Z,99890.12
2019-01-26T15:47:27.410Z,99889.88
2019-01-26T15:49:54.498Z,99887.28
2019-01-26T15:52:21.635Z,99892.35
2019-01-26T15:54:49.873Z,99883.28
2019-01-26T15:57:18.022Z,99879.25
2019-01-26T15:59:45.137Z,99873.03
2019-01-26T16:02:12.430Z,99870.17
2019-01-26T16:04:39.544Z,99870.64
2019-01-26T16:07:06.662Z,99864.82
2019-01-26T16:09:33.847Z,99864.37
2019-01-26T16:12:00.930Z,99865.77
2019-01-26T16:14:28.162Z,99866.88
2019-01-26T16:16:55.249Z,99860.98
2019-01-26T16:19:23.317Z,99854.01
2019-01-26T16:21:50.767Z,99853.06
2019-01-26T16:24:17.823Z,99854.23
2019-01-26T16:26:44.870Z,99854.34
2019-01-26T16:29:12.068Z,99849.77
2019-01-26T16:31:39.143Z,99838.91
2019-01-26T16:34:06.224Z,99836.77
2019-01-26T16:36:34.430Z,99832.63
2019-01-26T16:39:01.956Z,99834.03
2019-01-26T16:41:31.256Z,99840.05
2019-01-26T16:43:59.019Z,99830.95
2019-01-26T16:46:26.436Z,99823.42
2019-01-26T16:48:53.831Z,99822.33
2019-01-26T16:51:21.043Z,99818.44
2019-01-26T16:53:48.439Z,99814.73
2019-01-26T16:56:16.609Z,99810.44
2019-01-26T16:58:45.512Z,99800.27
2019-01-26T17:01:12.590Z,99800.41
2019-01-26T17:03:39.663Z,99803.80
2019-01-26T17:06:07.131Z,99804.41
2019-01-26T17:08:34.243Z,99808.27
2019-01-26T17:11:01.332Z,99809.48
2019-01-26T17:13:28.442Z,99804.47
2019-01-26T17:15:55.509Z,99808.07
2019-01-26T17:18:24.599Z,99800.02
2019-01-26T17:20:52.559Z,99798.38
2019-01-26T17:23:20.379Z,99790.38
2019-01-26T17:25:47.919Z,99784.59
2019-01-26T17:28:15.237Z,99773.55
2019-01-26T17:30:43.060Z,99775.94
2019-01-26T17:33:10.515Z,99768.77
2019-01-26T17:35:37.626Z,99773.46
2019-01-26T17:38:05.122Z,99762.84
2019-01-26T17:40:32.787Z,99763.23
2019-01-26T17:42:59.905Z,99757.41
2019-01-26T17:45:27.990Z,99759.45
2019-01-26T17:47:55.463Z,99754.00
2019-01-26T17:50:24.194Z,99743.98
2019-01-26T17:52:51.310Z,99738.20
2019-01-26T17:55:18.746Z,99735.35
2019-01-26T17:57:46.202Z,99741.14
2019-01-26T18:00:22.395Z,99735.73
2019-01-26T18:02:52.308Z,99723.33
2019-01-26T18:05:19.374Z,99720.39
2019-01-26T18:07:49.430Z,99711.78
2019-01-26T18:10:18.637Z,99712.84
2019-01-26T18:12:45.998Z,99703.64
2019-01-26T18:15:14.007Z,99690.66
2019-01-26T18:17:41.794Z,99692.89
2019-01-26T18:20:12.359Z,99689.23
2019-01-26T18:22:40.531Z,99688.30
2019-01-26T18:25:07.751Z,99683.24
2019-01-26T18:27:34.834Z,99690.18
2019-01-26T18:30:02.194Z,99687.84
2019-01-26T18:32:29.841Z,99685.69
2019-01-26T18:34:56.922Z,99683.33
2019-01-26T18:37:25.158Z,99677.94
2019-01-26T18:39:52.835Z,99677.09
2019-01-26T18:42:20.909Z,99665.52
2019-01-26T18:44:48.462Z,99659.72
2019-01-26T18:47:16.435Z,99655.88
2019-01-26T18:49:44.403Z,99652.56
2019-01-26T18:52:11.858Z,99644.19
2019-01-26T18:54:39.750Z,99645.02
2019-01-26T18:57:07.203Z,99635.69
2019-01-26T18:59:35.977Z,99642.55
2019-01-26T19:02:03.181Z,99631.45
2019-01-26T19:04:44.326Z,99633.34
2019-01-26T19:07:11.939Z,99632.98
2019-01-26T19:09:39.020Z,99618.73
2019-01-26T19:12:06.362Z,99616.49
2019-01-26T19:14:34.332Z,99611.77
2019-01-26T19:17:01.439Z,99612.80
2019-01-26T19:19:30.709Z,99616.34
2019-01-26T19:21:57.815Z,99614.48
2019-01-26T19:24:25.289Z,99611.42
2019-01-26T19:26:52.351Z,99608.44
2019-01-26T19:29:19.742Z,99599.48
2019-01-26T19:31:47.154Z,99595.36
2019-01-26T19:34:14.641Z,99595.23
2019-01-26T19:36:42.185Z,99590.61
2019-01-26T19:39:09.605Z,99578.20
2019-01-26T19:41:38.303Z,99580.48
2019-01-26T19:44:07.915Z,99571.62
2019-01-26T19:46:36.110Z,99566.34
2019-01-26T19:49:03.247Z,99569.58
2019-01-26T19:51:30.459Z,99562.28
2019-01-26T19:53:58.256Z,99558.18
2019-01-26T19:56:25.643Z,99553.33
2019-01-26T19:58:54.373Z,99556.56
2019-01-26T20:01:21.479Z,99557.64
2019-01-26T20:03:48.664Z,99547.23
2019-01-26T20:06:15.823Z,99544.52
2019-01-26T20:08:43.103Z,99534.77
2019-01-26T20:11:10.181Z,99536.11
2019-01-26T20:13:39.051Z,99532.83
2019-01-26T20:16:06.482Z,99534.47
2019-01-26T20:18:35.170Z,99525.53
2019-01-26T20:21:02.650Z,99524.90
2019-01-26T20:23:31.523Z,99522.23
2019-01-26T20:26:00.105Z,99519.11
2019-01-26T20:28:27.865Z,99513.22
2019-01-26T20:30:54.929Z,99504.16
2019-01-26T20:33:22.989Z,99501.28
2019-01-26T20:35:50.561Z,99501.88
2019-01-26T20:38:18.286Z,99498.53
2019-01-26T20:40:45.366Z,99493.38
2019-01-26T20:43:14.531Z,99486.09
2019-01-26T20:45:41.876Z,99486.83
2019-01-26T20:48:09.262Z,99483.30
2019-01-26T20:50:36.569Z,99477.06
2019-01-26T20:53:06.871Z,99471.67
2019-01-26T20:55:35.980Z,99474.27
2019-01-26T20:58:03.557Z,99467.13
2019-01-26T21:00:31.569Z,99455.70
2019-01-26T21:03:00.139Z,99459.64
2019-01-26T21:05:27.260Z,99450.69
2019-01-26T21:07:56.395Z,99450.20
2019-01-26T21:10:26.240Z,99447.29
2019-01-26T21:12:53.706Z,99449.86
2019-01-26T21:15:20.893Z,99448.83
2019-01-26T21:17:48.081Z,99438.65
2019-01-26T21:20:16.946Z,99440.58
2019-01-26T21:22:50.053Z,99437.01
2019-01-26T21:25:17.827Z,99433.17
2019-01-26T21:27:46.202Z,99436.42
2019-01-26T21:30:17.159Z,99433.27
2019-01-26T21:32:44.518Z,99426.03
2019-01-26T21:35:11.603Z,99427.59
2019-01-26T21:37:38.685Z,99427.16
2019-01-26T21:40:11.714Z,99422.25
2019-01-26T21:42:40.104Z,99410.52
2019-01-26T21:45:09.435Z,99408.52
2019-01-26T21:47:36.642Z,99412.66
2019-01-26T21:50:06.290Z,99404.53
2019-01-26T21:52:33.367Z,99408.03
2019-01-26T21:55:00.903Z,99402.75
2019-01-26T21:57:27.979Z,99395.83
2019-01-26T21:59:55.167Z,99394.20
2019-01-26T22:02:25.223Z,99383.91
2019-01-26T22:04:52.603Z,99393.58
2019-01-26T22:07:19.678Z,99381.48
2019-01-26T22:09:47.284Z,99379.32
2019-01-26T22:12:15.152Z,99372.53
2019-01-26T22:14:42.750Z,99366.83
2019-01-26T22:17:09.858Z,99361.31
2019-01-26T22:19:37.040Z,99351.34
2019-01-26T22:22:04.455Z,99356.83
2019-01-26T22:24:32.238Z,99349.89
2019-01-26T22:26:59.647Z,99343.58
2019-01-26T22:29:31.241Z,99334.23
2019-01-26T22:31:56.252Z,99337.94
2019-01-26T22:34:24.402Z,99338.05
2019-01-26T22:36:51.767Z,99334.50
2019-01-26T22:39:18.887Z,99332.70
2019-01-26T22:41:46.575Z,99331.12
2019-01-26T22:44:13.703Z,99327.36
2019-01-26T22:46:41.489Z,99318.00
2019-01-26T22:49:08.951Z,99321.34
2019-01-26T22:51:37.128Z,99311.98
2019-01-26T22:54:04.874Z,99305.11
2019-01-26T22:56:32.338Z,99297.98
2019-01-26T22:58:59.427Z,99296.77
2019-01-26T23:01:31.949Z,99296.77
2019-01-26T23:04:36.965Z,99288.71
2019-01-26T23:07:35.585Z,99291.56
2019-01-26T23:10:48.970Z,99281.14
2019-01-26T23:13:43.456Z,99276.64
2019-01-26T23:16:51.814Z,99272.25
2019-01-26T23:19:26.163Z,99266.09
2019-01-26T23:22:27.763Z,99256.66
2019-01-26T23:25:24.562Z,99263.76
2019-01-26T23:28:12.468Z,99254.27
2019-01-26T23:31:19.675Z,99250.83
2019-01-26T23:33:51.003Z,99243.93
2019-01-26T23:36:18.615Z,99246.13
2019-01-26T23:38:46.699Z,99232.16
2019-01-26T23:41:13.847Z,99226.08
2019-01-26T23:43:41.563Z,99221.21
2019-01-26T23:46:09.652Z,99215.59
2019-01-26T23:48:41.024Z,99206.15
2019-01-26T23:51:08.542Z,99201.91
2019-01-26T23:53:36.200Z,99203.17
2019-01-26T23:56:03.476Z,99201.21
2019-01-26T23:58:31.114Z,99196.05
